Time;durP1;ratioP1;P1;durP2;ratioP2;P2;SDS_P1;SDS_P2;PMS_P1;PMS_P2;Temp;Humidity;BMP_temperature;BMP_pressure;BME280_temperature;BME280_humidity;BME280_pressure;Samples;Min_cycle;Max_cycle;Signal;HPM_P1;HPM_P2
2022/03/20 00:00:36;;;;;;;0.05;0.05;;;2.90;99.90;226.50;231333.00;;;;5053255;28;20222;-71
2022/03/20 00:03:07;;;;;;;0.08;0.08;;;2.90;99.90;226.50;231333.00;;;;5051679;28;20576;-69
2022/03/20 00:05:39;;;;;;;0.00;0.00;;;2.90;99.90;226.50;231333.00;;;;5052972;28;20194;-68
2022/03/20 00:08:09;;;;;;;0.10;0.10;;;3.00;99.90;226.50;231333.00;;;;5050486;28;20627;-69
2022/03/20 00:10:38;;;;;;;0.10;0.10;;;3.00;99.90;226.50;231333.00;;;;5052438;28;20225;-68
2022/03/20 00:13:08;;;;;;;0.10;0.10;;;3.10;99.90;226.50;231333.00;;;;5052830;28;20198;-69
2022/03/20 00:15:40;;;;;;;0.10;0.10;;;3.00;99.90;226.50;231333.00;;;;5052366;28;20194;-71
2022/03/20 00:18:09;;;;;;;0.10;0.10;;;2.80;99.90;226.50;231333.00;;;;5052685;28;20195;-72
2022/03/20 00:20:41;;;;;;;0.10;0.10;;;2.80;99.90;226.50;231333.00;;;;5052432;28;20253;-71
2022/03/20 00:23:12;;;;;;;0.10;0.10;;;3.00;99.90;226.50;231333.00;;;;5052972;28;20610;-72
2022/03/20 00:25:42;;;;;;;0.10;0.10;;;2.90;99.90;226.50;231333.00;;;;5046738;28;20260;-72
2022/03/20 00:28:12;;;;;;;0.10;0.10;;;2.60;99.90;226.50;231333.00;;;;5052560;28;20229;-71
2022/03/20 00:30:40;;;;;;;0.10;0.10;;;2.70;99.90;226.50;231333.00;;;;5051210;28;20226;-72
2022/03/20 00:33:09;;;;;;;0.10;0.10;;;2.80;99.90;226.50;231333.00;;;;5052477;28;20244;-72
2022/03/20 00:35:38;;;;;;;0.10;0.10;;;2.90;99.90;226.50;231333.00;;;;5052058;28;20199;-72
2022/03/20 00:38:08;;;;;;;0.10;0.10;;;3.00;99.90;226.50;231333.00;;;;5052840;28;20213;-72
2022/03/20 00:40:37;;;;;;;0.10;0.10;;;3.10;99.90;226.50;231333.00;;;;5052294;28;20222;-72
2022/03/20 00:43:06;;;;;;;0.10;0.10;;;3.10;99.90;226.50;231333.00;;;;5052503;28;20199;-72
2022/03/20 00:45:34;;;;;;;0.10;0.10;;;3.10;99.90;226.50;231333.00;;;;5052074;28;20643;-71
2022/03/20 00:48:03;;;;;;;0.10;0.10;;;3.20;99.90;226.50;231333.00;;;;5052285;28;20260;-71
2022/03/20 00:50:31;;;;;;;0.10;0.10;;;3.20;99.90;226.50;231333.00;;;;5051409;28;20222;-69
2022/03/20 00:53:00;;;;;;;0.10;0.10;;;3.30;99.90;226.50;231333.00;;;;5052165;28;20608;-72
2022/03/20 00:55:29;;;;;;;0.10;0.10;;;3.40;99.90;226.50;231333.00;;;;5052166;28;20450;-71
2022/03/20 00:57:57;;;;;;;0.10;0.10;;;3.40;99.90;226.50;231333.00;;;;5051768;28;20189;-71
2022/03/20 01:00:26;;;;;;;0.10;0.10;;;3.50;99.90;226.50;231333.00;;;;5052068;28;20272;-71
2022/03/20 01:02:54;;;;;;;0.10;0.10;;;3.60;96.90;226.50;231333.00;;;;5052041;28;20190;-71
2022/03/20 01:05:22;;;;;;;0.10;0.10;;;3.70;90.40;226.50;231333.00;;;;5050967;28;20197;-70
2022/03/20 01:07:50;;;;;;;0.10;0.10;;;3.70;90.20;226.50;231333.00;;;;5050378;28;20272;-70
2022/03/20 01:10:20;;;;;;;0.10;0.10;;;3.70;93.80;226.50;231333.00;;;;5051256;28;20210;-71
2022/03/20 01:12:48;;;;;;;0.10;0.10;;;3.70;95.70;226.50;231333.00;;;;5049743;28;20202;-72
2022/03/20 01:15:16;;;;;;;0.10;0.10;;;3.70;97.70;226.50;231333.00;;;;5049225;28;20202;-69
2022/03/20 01:17:50;;;;;;;0.10;0.10;;;3.70;99.90;226.50;231333.00;;;;5051368;28;20224;-70
2022/03/20 01:20:18;;;;;;;0.10;0.10;;;3.80;99.90;226.50;231333.00;;;;5051155;28;20190;-69
2022/03/20 01:22:46;;;;;;;0.10;0.10;;;3.80;99.90;226.50;231333.00;;;;5051613;28;20199;-70
2022/03/20 01:25:20;;;;;;;0.10;0.10;;;3.60;99.90;226.50;231333.00;;;;5056354;28;20186;-70
2022/03/20 01:27:48;;;;;;;0.10;0.10;;;3.40;99.90;226.50;231333.00;;;;5045148;28;20190;-70
2022/03/20 01:30:16;;;;;;;0.10;0.10;;;3.40;99.90;226.50;231333.00;;;;5052135;28;20287;-69
2022/03/20 01:32:44;;;;;;;0.10;0.10;;;3.30;99.90;226.50;231333.00;;;;5051488;28;20195;-70
2022/03/20 01:35:13;;;;;;;0.10;0.10;;;3.00;99.90;226.50;231333.00;;;;5047797;28;20198;-70
2022/03/20 01:37:41;;;;;;;0.10;0.10;;;3.00;99.90;226.50;231333.00;;;;5051280;28;20265;-70
2022/03/20 01:40:10;;;;;;;0.10;0.10;;;3.10;99.90;226.50;231333.00;;;;5050980;28;20194;-70
2022/03/20 01:42:40;;;;;;;0.10;0.10;;;3.10;99.90;226.50;231333.00;;;;5032184;28;20196;-70
2022/03/20 01:45:18;;;;;;;0.10;0.10;;;3.30;99.90;226.50;231333.00;;;;5051403;28;20659;-70
2022/03/20 01:47:49;;;;;;;0.10;0.10;;;3.40;99.90;226.50;231333.00;;;;5051117;28;20206;-70
2022/03/20 01:50:20;;;;;;;0.10;0.10;;;3.60;99.90;226.50;231333.00;;;;5042951;28;20233;-70
2022/03/20 01:52:51;;;;;;;0.10;0.10;;;3.70;99.90;226.50;231333.00;;;;5051210;28;20248;-70
2022/03/20 01:55:21;;;;;;;0.10;0.10;;;3.90;99.90;226.50;231333.00;;;;5050719;28;20207;-70
2022/03/20 01:57:51;;;;;;;0.10;0.10;;;4.00;99.90;226.50;231333.00;;;;5046582;28;20240;-71
2022/03/20 02:00:22;;;;;;;0.10;0.10;;;4.00;99.90;226.50;231333.00;;;;5051396;28;20198;-70
2022/03/20 02:02:49;;;;;;;0.10;0.10;;;4.20;99.90;226.50;231333.00;;;;5026711;28;20235;-69
2022/03/20 02:05:19;;;;;;;0.10;0.10;;;4.40;99.90;226.50;231333.00;;;;5032906;28;20249;-69
2022/03/20 02:07:47;;;;;;;0.10;0.10;;;4.40;99.90;226.50;231333.00;;;;5048604;28;20190;-69
2022/03/20 02:10:16;;;;;;;0.10;0.10;;;4.40;99.90;226.50;231333.00;;;;5046945;28;20210;-71
2022/03/20 02:12:45;;;;;;;0.10;0.10;;;4.40;99.90;226.50;231333.00;;;;5049532;28;20198;-69
2022/03/20 02:15:15;;;;;;;0.10;0.10;;;4.40;99.90;226.50;231333.00;;;;5050680;28;20183;-70
2022/03/20 02:17:45;;;;;;;0.10;0.10;;;4.50;99.90;226.50;231333.00;;;;5049606;28;20190;-69
2022/03/20 02:20:13;;;;;;;0.10;0.10;;;4.50;99.90;226.50;231333.00;;;;5049661;28;20202;-70
2022/03/20 02:22:45;;;;;;;0.10;0.10;;;4.60;99.90;226.50;231333.00;;;;5050189;28;20226;-70
2022/03/20 02:25:17;;;;;;;0.10;0.10;;;4.60;99.90;226.50;231333.00;;;;5050648;28;20190;-71
2022/03/20 02:27:45;;;;;;;0.10;0.10;;;4.70;99.90;226.50;231333.00;;;;5051634;28;20244;-71
2022/03/20 02:30:17;;;;;;;0.10;0.10;;;4.60;99.90;226.50;231333.00;;;;5051453;28;20267;-70
2022/03/20 02:32:48;;;;;;;0.10;0.10;;;4.70;99.90;226.50;231333.00;;;;5051884;28;20602;-70
2022/03/20 02:35:19;;;;;;;0.10;0.10;;;4.60;99.90;226.50;231333.00;;;;5052144;28;20186;-69
2022/03/20 02:37:51;;;;;;;0.10;0.10;;;4.70;99.90;226.50;231333.00;;;;5045746;28;20201;-69
2022/03/20 02:40:21;;;;;;;0.10;0.10;;;4.80;99.90;226.50;231333.00;;;;5050286;28;20285;-69
2022/03/20 02:42:54;;;;;;;0.10;0.10;;;4.80;99.90;226.50;231333.00;;;;5112711;23;20217;-71
2022/03/20 02:45:27;;;;;;;0.10;0.10;;;4.80;99.90;226.50;231333.00;;;;5098794;28;20204;-72
2022/03/20 02:47:57;;;;;;;0.10;0.10;;;4.80;99.90;226.50;231333.00;;;;5098695;28;20213;-72
2022/03/20 02:50:28;;;;;;;0.10;0.10;;;4.80;99.90;226.50;231333.00;;;;5090055;28;20208;-72
2022/03/20 02:53:00;;;;;;;0.10;0.10;;;4.90;94.70;226.50;231333.00;;;;5072202;28;20279;-75
2022/03/20 02:55:31;;;;;;;0.10;0.10;;;4.90;90.70;226.50;231333.00;;;;5070653;28;20206;-71
2022/03/20 02:58:01;;;;;;;0.10;0.10;;;4.80;91.10;226.50;231333.00;;;;5063181;28;20197;-73
2022/03/20 03:00:32;;;;;;;0.10;0.10;;;4.90;89.20;226.50;231333.00;;;;5066144;28;20543;-73
2022/03/20 03:03:04;;;;;;;0.10;0.10;;;4.90;78.30;226.50;231333.00;;;;5062284;28;20694;-73
2022/03/20 03:05:33;;;;;;;0.10;0.10;;;4.80;76.20;226.50;231333.00;;;;5066971;28;20190;-73
2022/03/20 03:10:57;;;;;;;0.00;0.00;;;4.90;72.90;226.50;231333.00;;;;5067418;28;20271;-73
2022/03/20 03:13:29;;;;;;;0.10;0.10;;;5.00;70.70;226.50;231333.00;;;;5069957;28;20193;-74
2022/03/20 03:16:02;;;;;;;0.10;0.10;;;5.00;59.20;226.50;231333.00;;;;5070129;28;20186;-74
2022/03/20 03:18:30;;;;;;;0.10;0.10;;;5.20;56.90;226.50;231333.00;;;;5070632;28;20206;-73
2022/03/20 03:21:00;;;;;;;0.10;0.10;;;5.20;55.70;226.50;231333.00;;;;5085339;28;20194;-73
2022/03/20 03:23:30;;;;;;;0.10;0.10;;;5.30;47.90;226.50;231333.00;;;;5069676;28;20197;-73
2022/03/20 03:25:58;;;;;;;0.10;0.10;;;5.30;45.80;226.50;231333.00;;;;5070065;28;20587;-73
2022/03/20 03:28:34;;;;;;;0.05;0.05;;;5.30;44.70;226.50;231333.00;;;;5070388;28;20202;-73
2022/03/20 03:31:06;;;;;;;0.10;0.10;;;5.30;41.30;226.50;231333.00;;;;5070216;28;20271;-73
2022/03/20 03:35:41;;;;;;;0.10;0.10;;;5.30;37.70;226.50;231333.00;;;;5066957;28;20186;-73
2022/03/20 03:36:25;;;;;;;0.00;0.00;;;5.40;35.00;226.50;231333.00;;;;5067392;28;20198;-73
2022/03/20 03:38:54;;;;;;;0.10;0.10;;;5.40;31.50;226.50;231333.00;;;;5071157;28;20204;-73
2022/03/20 03:41:23;;;;;;;0.10;0.10;;;5.20;33.60;226.50;231333.00;;;;5074062;28;20229;-73
2022/03/20 03:43:52;;;;;;;0.10;0.10;;;5.20;33.40;226.50;231333.00;;;;5073810;28;20194;-73
2022/03/20 03:46:20;;;;;;;0.10;0.10;;;5.20;31.00;226.50;231333.00;;;;5074218;28;20244;-73
2022/03/20 03:48:48;;;;;;;0.10;0.10;;;5.10;35.00;226.50;231333.00;;;;5074229;28;20196;-73
2022/03/20 03:51:15;;;;;;;0.10;0.10;;;5.20;34.30;226.50;231333.00;;;;5072886;28;20229;-73
2022/03/20 03:53:44;;;;;;;0.10;0.10;;;5.10;35.00;226.50;231333.00;;;;5073074;28;20186;-73
2022/03/20 03:56:13;;;;;;;0.10;0.10;;;5.20;33.50;226.50;231333.00;;;;5069962;28;20224;-73
2022/03/20 03:58:43;;;;;;;0.10;0.10;;;5.10;31.60;226.50;231333.00;;;;5073366;28;20193;-74
2022/03/20 04:01:11;;;;;;;0.10;0.10;;;5.10;28.40;226.50;231333.00;;;;5071956;28;20694;-74
2022/03/20 04:03:39;;;;;;;0.10;0.10;;;5.00;27.90;226.50;231333.00;;;;5073435;28;20194;-74
2022/03/20 04:06:09;;;;;;;0.10;0.10;;;5.00;28.70;226.50;231333.00;;;;5073868;28;20198;-73
2022/03/20 04:08:37;;;;;;;0.10;0.10;;;5.00;31.50;226.50;231333.00;;;;5068065;28;20699;-75
2022/03/20 04:11:06;;;;;;;0.10;0.10;;;5.10;29.30;226.50;231333.00;;;;5073136;28;20767;-74
2022/03/20 04:13:35;;;;;;;0.00;0.00;;;5.10;25.00;226.50;231333.00;;;;5073277;28;20198;-73
2022/03/20 04:16:05;;;;;;;0.10;0.10;;;5.10;24.20;226.50;231333.00;;;;5072672;28;20201;-73
2022/03/20 04:18:34;;;;;;;0.10;0.10;;;5.10;25.20;226.50;231333.00;;;;5070555;28;20198;-73
2022/03/20 04:21:01;;;;;;;0.10;0.10;;;5.00;24.80;226.50;231333.00;;;;5072736;28;20185;-72
2022/03/20 04:26:23;;;;;;;0.10;0.10;;;5.00;23.30;226.50;231333.00;;;;5057067;28;20602;-72
2022/03/20 04:28:54;;;;;;;0.10;0.10;;;5.00;24.20;226.50;231333.00;;;;5070967;28;20206;-73
2022/03/20 04:31:22;;;;;;;0.10;0.10;;;5.00;22.10;226.50;231333.00;;;;5072795;28;20580;-72
2022/03/20 04:33:54;;;;;;;0.10;0.10;;;5.00;20.40;226.50;231333.00;;;;5072773;28;20228;-73
2022/03/20 04:36:24;;;;;;;0.10;0.10;;;5.00;17.30;226.50;231333.00;;;;5072557;28;20189;-73
2022/03/20 04:38:55;;;;;;;0.10;0.10;;;5.00;18.90;226.50;231333.00;;;;5072745;28;20190;-73
2022/03/20 04:41:24;;;;;;;0.10;0.10;;;4.90;18.80;226.50;231333.00;;;;5072167;28;20638;-72
2022/03/20 04:43:54;;;;;;;0.10;0.10;;;4.90;17.50;226.50;231333.00;;;;5072419;28;20224;-72
2022/03/20 04:46:23;;;;;;;0.10;0.10;;;4.90;16.40;226.50;231333.00;;;;5072195;28;20205;-72
2022/03/20 04:59:55;;;;;;;0.10;0.10;;;4.90;13.70;226.50;231333.00;;;;5071796;28;20205;-72
2022/03/20 05:02:23;;;;;;;0.10;0.10;;;4.90;12.50;226.50;231333.00;;;;5072361;28;20217;-73
2022/03/20 05:04:52;;;;;;;0.10;0.10;;;4.90;28.40;226.50;231333.00;;;;5076777;28;20267;-74
2022/03/20 05:07:20;;;;;;;0.10;0.10;;;5.00;10.70;226.50;231333.00;;;;5074384;28;20194;-74
2022/03/20 05:15:21;;;;;;;0.10;0.10;;;4.90;14.20;226.50;231333.00;;;;5092385;28;20248;-73
2022/03/20 05:17:48;;;;;;;0.10;0.10;;;4.90;10.30;226.50;231333.00;;;;5066035;28;20663;-73
2022/03/20 05:20:16;;;;;;;0.00;0.00;;;4.90;9.30;226.50;231333.00;;;;5072290;28;20190;-73
2022/03/20 05:22:44;;;;;;;0.10;0.10;;;4.90;9.80;226.50;231333.00;;;;5071435;28;20464;-73
2022/03/20 05:25:13;;;;;;;0.10;0.10;;;4.80;26.20;226.50;231333.00;;;;5070878;28;20193;-73
2022/03/20 05:27:42;;;;;;;0.10;0.10;;;4.80;12.40;226.50;231333.00;;;;5071743;28;20220;-73
2022/03/20 05:30:12;;;;;;;0.00;0.00;;;4.70;8.90;226.50;231333.00;;;;5064691;28;20651;-73
2022/03/20 05:32:41;;;;;;;0.10;0.10;;;4.70;9.20;226.50;231333.00;;;;5071716;28;20264;-74
2022/03/20 05:35:10;;;;;;;0.10;0.10;;;4.70;8.40;226.50;231333.00;;;;5070494;28;20186;-73
2022/03/20 05:37:38;;;;;;;0.00;0.00;;;4.70;6.30;226.50;231333.00;;;;5087214;28;20244;-74
2022/03/20 05:40:08;;;;;;;0.10;0.10;;;4.80;21.70;226.50;231333.00;;;;5071459;28;20263;-73
2022/03/20 05:42:36;;;;;;;0.10;0.10;;;4.80;4.30;226.50;231333.00;;;;5071426;28;20217;-73
2022/03/20 05:45:06;;;;;;;0.10;0.10;;;4.70;6.30;226.50;231333.00;;;;5070756;28;20212;-73
2022/03/20 05:47:35;;;;;;;0.10;0.10;;;4.70;5.80;226.50;231333.00;;;;5071221;28;20186;-73
2022/03/20 05:50:07;;;;;;;0.10;0.10;;;4.80;2.50;226.50;231333.00;;;;5071163;28;20253;-73
2022/03/20 05:52:35;;;;;;;0.00;0.00;;;4.70;1.00;226.50;231333.00;;;;5065614;28;20213;-73
2022/03/20 05:55:05;;;;;;;0.10;0.10;;;4.70;1.30;226.50;231333.00;;;;5070982;28;20259;-73
2022/03/20 06:00:24;;;;;;;0.10;0.10;;;4.90;1.90;226.50;231333.00;;;;5071359;28;20255;-74
2022/03/20 06:02:52;;;;;;;0.10;0.10;;;5.00;4.50;226.50;231333.00;;;;5063124;28;20438;-74
2022/03/20 06:05:23;;;;;;;0.10;0.10;;;4.90;1.80;226.50;231333.00;;;;5072440;28;20247;-74
2022/03/20 06:07:53;;;;;;;0.10;0.10;;;5.00;1.90;226.50;231333.00;;;;5071665;28;20197;-75
2022/03/20 06:10:23;;;;;;;0.10;0.10;;;4.90;1.00;226.50;231333.00;;;;5067857;28;20239;-74
2022/03/20 06:12:51;;;;;;;0.10;0.10;;;4.90;1.00;226.50;231333.00;;;;5071647;28;20619;-73
2022/03/20 06:15:19;;;;;;;0.10;0.10;;;4.90;2.00;226.50;231333.00;;;;5069834;28;20190;-73
2022/03/20 06:17:47;;;;;;;0.10;0.10;;;4.80;1.00;226.50;231333.00;;;;5070620;28;20197;-72
2022/03/20 06:20:17;;;;;;;0.10;0.10;;;4.90;1.00;226.50;231333.00;;;;5071153;28;20189;-73
2022/03/20 06:22:49;;;;;;;0.10;0.10;;;5.10;1.00;226.50;231333.00;;;;5067738;28;20218;-73
2022/03/20 06:25:17;;;;;;;0.10;0.10;;;5.20;1.00;226.50;231333.00;;;;5069654;28;20193;-72
2022/03/20 06:27:48;;;;;;;0.10;0.10;;;5.20;1.00;226.50;231333.00;;;;5070338;28;20245;-72
2022/03/20 06:30:18;;;;;;;0.10;0.10;;;5.10;1.00;226.50;231333.00;;;;5070665;28;20201;-72
2022/03/20 06:32:48;;;;;;;0.10;0.10;;;5.20;1.00;226.50;231333.00;;;;5070090;28;20217;-73
2022/03/20 06:35:18;;;;;;;0.10;0.10;;;5.20;1.00;226.50;231333.00;;;;5065445;28;20185;-72
2022/03/20 06:37:50;;;;;;;0.10;0.10;;;5.20;1.00;226.50;231333.00;;;;5070583;28;20193;-71
2022/03/20 06:40:18;;;;;;;0.10;0.10;;;5.30;1.00;226.50;231333.00;;;;5066762;28;20236;-72
2022/03/20 06:42:46;;;;;;;0.10;0.10;;;5.40;1.00;226.50;231333.00;;;;5070127;28;20225;-74
2022/03/20 06:45:15;;;;;;;0.00;0.00;;;5.50;1.00;226.50;231333.00;;;;5070550;28;20190;-73
2022/03/20 06:47:44;;;;;;;0.10;0.10;;;5.50;1.00;226.50;231333.00;;;;5069061;28;20194;-73
2022/03/20 06:50:14;;;;;;;0.10;0.10;;;5.60;1.00;226.50;231333.00;;;;5070202;28;20555;-73
2022/03/20 06:52:43;;;;;;;0.10;0.10;;;5.60;1.00;226.50;231333.00;;;;5069468;28;20213;-72
2022/03/20 06:55:15;;;;;;;0.10;0.10;;;5.60;1.00;226.50;231333.00;;;;5068376;28;20659;-73
2022/03/20 06:57:46;;;;;;;0.10;0.10;;;5.70;1.00;226.50;231333.00;;;;5069742;28;20198;-74
2022/03/20 07:00:16;;;;;;;0.10;0.10;;;5.70;1.00;226.50;231333.00;;;;5068883;28;20186;-72
2022/03/20 07:02:56;;;;;;;0.10;0.10;;;5.80;1.00;226.50;231333.00;;;;5069430;28;20612;-72
2022/03/20 07:05:31;;;;;;;0.10;0.10;;;6.00;1.00;226.50;231333.00;;;;5069951;28;20193;-73
2022/03/20 07:07:59;;;;;;;0.00;0.00;;;6.00;1.00;226.50;231333.00;;;;5069976;28;20645;-73
2022/03/20 07:10:29;;;;;;;0.10;0.10;;;6.00;1.00;226.50;231333.00;;;;5070127;28;20522;-73
2022/03/20 07:15:42;;;;;;;0.00;0.00;;;6.20;1.00;226.50;231333.00;;;;5082048;28;20697;-74
2022/03/20 07:18:12;;;;;;;0.05;0.05;;;6.20;1.00;226.50;231333.00;;;;5073254;28;20281;-74
2022/03/20 07:20:44;;;;;;;0.10;0.10;;;6.20;1.00;226.50;231333.00;;;;5073512;28;20247;-73
2022/03/20 07:23:13;;;;;;;0.10;0.10;;;6.30;1.00;226.50;231333.00;;;;5073890;28;20662;-74
2022/03/20 07:31:16;;;;;;;0.10;0.10;;;6.40;1.00;226.50;231333.00;;;;5073243;28;20217;-72
2022/03/20 07:33:44;;;;;;;0.10;0.10;;;6.40;1.00;226.50;231333.00;;;;5073377;28;20217;-74
2022/03/20 07:36:12;;;;;;;0.10;0.10;;;6.50;1.00;226.50;231333.00;;;;5073235;28;20259;-76
2022/03/20 07:38:40;;;;;;;0.10;0.10;;;6.60;1.00;226.50;231333.00;;;;5073424;28;20190;-73
2022/03/20 07:41:10;;;;;;;0.10;0.10;;;6.70;1.00;226.50;231333.00;;;;5072936;28;20229;-74
2022/03/20 07:43:38;;;;;;;0.10;0.10;;;6.60;1.00;226.50;231333.00;;;;5073569;28;20675;-75
2022/03/20 07:46:06;;;;;;;0.00;0.00;;;6.70;1.00;226.50;231333.00;;;;5062825;28;20191;-73
2022/03/20 07:48:35;;;;;;;0.10;0.10;;;6.80;1.00;226.50;231333.00;;;;5069183;28;20618;-73
2022/03/20 07:51:03;;;;;;;0.10;0.10;;;6.90;1.00;226.50;231333.00;;;;5071713;28;20193;-72
2022/03/20 07:53:31;;;;;;;0.10;0.10;;;6.80;1.00;226.50;231333.00;;;;5073000;28;20760;-72
2022/03/20 07:55:59;;;;;;;0.00;0.00;;;6.80;1.00;226.50;231333.00;;;;5071665;28;20252;-72
2022/03/20 07:58:28;;;;;;;0.00;0.00;;;6.80;1.00;226.50;231333.00;;;;5073308;28;20194;-73
2022/03/20 08:00:56;;;;;;;0.10;0.10;;;6.80;1.00;226.50;231333.00;;;;5072723;28;20201;-72
2022/03/20 08:03:24;;;;;;;0.10;0.10;;;6.90;1.00;226.50;231333.00;;;;5065891;28;20674;-72
2022/03/20 08:05:53;;;;;;;0.10;0.10;;;6.80;1.00;226.50;231333.00;;;;5070863;28;20281;-72
2022/03/20 08:08:21;;;;;;;0.10;0.10;;;6.80;1.00;226.50;231333.00;;;;5071485;28;20197;-72
2022/03/20 08:10:49;;;;;;;0.10;0.10;;;6.90;1.00;226.50;231333.00;;;;5068519;28;20560;-73
2022/03/20 08:13:17;;;;;;;0.10;0.10;;;6.90;1.00;226.50;231333.00;;;;5072201;28;20209;-72
2022/03/20 08:15:46;;;;;;;0.10;0.10;;;7.00;1.50;226.50;231333.00;;;;5071946;28;20243;-72
2022/03/20 08:18:16;;;;;;;0.10;0.10;;;7.00;1.00;226.50;231333.00;;;;5071985;28;20605;-72
2022/03/20 08:20:44;;;;;;;0.10;0.10;;;7.10;1.00;226.50;231333.00;;;;5072774;28;20198;-72
2022/03/20 08:23:12;;;;;;;0.10;0.10;;;7.20;1.00;226.50;231333.00;;;;5070338;28;20319;-72
2022/03/20 08:25:42;;;;;;;0.10;0.10;;;7.10;1.00;226.50;231333.00;;;;5071783;28;20247;-72
2022/03/20 08:28:11;;;;;;;0.08;0.08;;;7.10;1.00;226.50;231333.00;;;;5072968;28;20209;-72
2022/03/20 08:30:40;;;;;;;0.00;0.00;;;7.00;1.00;226.50;231333.00;;;;5064459;28;20182;-72
2022/03/20 08:33:09;;;;;;;0.10;0.10;;;7.00;1.00;226.50;231333.00;;;;5072864;28;20274;-72
2022/03/20 08:35:37;;;;;;;0.10;0.10;;;7.20;1.00;226.50;231333.00;;;;5069858;28;20247;-72
2022/03/20 08:38:05;;;;;;;0.10;0.10;;;7.30;1.00;226.50;231333.00;;;;5072784;28;20682;-72
2022/03/20 08:40:33;;;;;;;0.10;0.10;;;7.20;1.00;226.50;231333.00;;;;5072346;28;20620;-72
2022/03/20 08:43:04;;;;;;;0.10;0.10;;;7.30;1.00;226.50;231333.00;;;;5073194;28;20577;-72
2022/03/20 08:45:33;;;;;;;0.10;0.10;;;7.40;1.00;226.50;231333.00;;;;5073739;28;20268;-72
2022/03/20 08:48:03;;;;;;;0.10;0.10;;;7.30;1.00;226.50;231333.00;;;;5072515;28;20642;-72
2022/03/20 08:50:32;;;;;;;0.10;0.10;;;7.40;1.00;226.50;231333.00;;;;5073329;28;20251;-72
2022/03/20 08:53:01;;;;;;;0.10;0.10;;;7.40;1.00;226.50;231333.00;;;;5073259;28;20270;-72
2022/03/20 08:55:31;;;;;;;0.10;0.10;;;7.40;1.00;226.50;231333.00;;;;5065886;28;20221;-71
2022/03/20 08:57:59;;;;;;;0.10;0.10;;;7.40;1.00;226.50;231333.00;;;;5069487;28;20259;-72
2022/03/20 09:00:29;;;;;;;0.10;0.10;;;7.40;1.00;226.50;231333.00;;;;5072123;28;20272;-72
2022/03/20 09:02:57;;;;;;;0.10;0.10;;;7.50;1.00;226.50;231333.00;;;;5072181;28;20221;-72
2022/03/20 09:05:25;;;;;;;0.10;0.10;;;7.50;1.00;226.50;231333.00;;;;5071945;28;20205;-72
2022/03/20 09:07:57;;;;;;;0.10;0.10;;;7.60;1.00;226.50;231333.00;;;;5070673;28;20202;-72
2022/03/20 09:10:26;;;;;;;0.10;0.10;;;7.60;1.00;226.50;231333.00;;;;5072015;28;20537;-72
2022/03/20 09:12:55;;;;;;;0.10;0.10;;;7.70;1.00;226.50;231333.00;;;;5072219;28;20206;-72
2022/03/20 09:15:25;;;;;;;0.10;0.10;;;7.80;1.00;226.50;231333.00;;;;5071581;28;20283;-72
2022/03/20 09:20:42;;;;;;;0.10;0.10;;;7.90;1.00;226.50;231333.00;;;;5086919;28;20197;-71
2022/03/20 09:23:14;;;;;;;0.10;0.10;;;8.00;1.00;226.50;231333.00;;;;5066289;28;20210;-72
2022/03/20 09:25:42;;;;;;;0.10;0.10;;;8.10;1.00;226.50;231333.00;;;;5071123;28;20189;-72
2022/03/20 09:28:12;;;;;;;0.10;0.10;;;8.10;1.00;226.50;231333.00;;;;5070533;28;20288;-72
2022/03/20 09:30:42;;;;;;;0.10;0.10;;;8.20;1.00;226.50;231333.00;;;;5068713;28;20263;-72
2022/03/20 09:33:11;;;;;;;0.10;0.10;;;8.20;1.00;226.50;231333.00;;;;5067968;28;20282;-72
2022/03/20 09:35:39;;;;;;;0.10;0.10;;;8.30;1.00;226.50;231333.00;;;;5069852;28;20229;-72
2022/03/20 09:38:08;;;;;;;0.10;0.10;;;8.30;1.00;226.50;231333.00;;;;5071092;28;20667;-72
2022/03/20 09:40:39;;;;;;;0.10;0.10;;;8.40;1.00;226.50;231333.00;;;;5071895;28;20247;-72
2022/03/20 09:43:08;;;;;;;0.10;0.10;;;8.40;1.00;226.50;231333.00;;;;5072243;28;20217;-72
2022/03/20 09:45:36;;;;;;;0.10;0.10;;;8.40;1.00;226.50;231333.00;;;;5079007;28;20201;-72
2022/03/20 09:48:05;;;;;;;0.10;0.10;;;8.50;1.00;226.50;231333.00;;;;5073478;28;20250;-72
2022/03/20 09:50:34;;;;;;;0.10;0.10;;;8.50;1.00;226.50;231333.00;;;;5076776;28;20252;-72
2022/03/20 09:53:02;;;;;;;0.10;0.10;;;8.50;1.00;226.50;231333.00;;;;5075914;28;20222;-72
2022/03/20 09:55:31;;;;;;;0.10;0.10;;;8.60;1.00;226.50;231333.00;;;;5077837;28;20218;-72
2022/03/20 09:58:00;;;;;;;0.10;0.10;;;8.70;1.00;226.50;231333.00;;;;5076258;28;20223;-72
2022/03/20 10:00:28;;;;;;;0.10;0.10;;;8.90;1.00;226.50;231333.00;;;;5091005;28;20197;-72
2022/03/20 10:02:56;;;;;;;0.10;0.10;;;8.90;1.00;226.50;231333.00;;;;5075022;28;20221;-72
2022/03/20 10:05:26;;;;;;;0.10;0.10;;;9.00;1.00;226.50;231333.00;;;;5073664;28;20705;-72
2022/03/20 10:07:54;;;;;;;0.10;0.10;;;9.10;1.00;226.50;231333.00;;;;5075473;28;20255;-72
2022/03/20 10:10:26;;;;;;;0.10;0.10;;;9.20;1.00;226.50;231333.00;;;;5067887;28;20197;-72
2022/03/20 10:12:57;;;;;;;0.10;0.10;;;9.30;1.00;226.50;231333.00;;;;5070524;28;20581;-71
2022/03/20 10:15:34;;;;;;;0.10;0.10;;;9.30;1.00;226.50;231333.00;;;;5071080;28;20224;-72
2022/03/20 10:18:14;;;;;;;0.10;0.10;;;9.20;1.00;226.50;231333.00;;;;5069375;28;20211;-72
2022/03/20 10:20:46;;;;;;;0.10;0.10;;;9.30;1.00;226.50;231333.00;;;;5070751;28;20204;-72
2022/03/20 10:23:33;;;;;;;0.10;0.10;;;9.30;1.00;226.50;231333.00;;;;5070749;28;20189;-72
2022/03/20 10:26:06;;;;;;;0.10;0.10;;;9.30;1.00;226.50;231333.00;;;;5069535;28;20189;-72
2022/03/20 10:28:37;;;;;;;0.10;0.10;;;9.40;1.00;226.50;231333.00;;;;5063714;28;20256;-72
2022/03/20 10:31:09;;;;;;;0.10;0.10;;;9.60;1.00;226.50;231333.00;;;;5070148;28;20221;-72
2022/03/20 10:33:40;;;;;;;0.08;0.08;;;9.50;1.00;226.50;231333.00;;;;5070898;28;20228;-72
2022/03/20 10:36:14;;;;;;;0.10;0.10;;;9.40;1.00;226.50;231333.00;;;;5072027;28;20686;-72
2022/03/20 10:38:44;;;;;;;0.10;0.10;;;9.50;1.00;226.50;231333.00;;;;5071086;28;20189;-72
2022/03/20 10:41:21;;;;;;;0.10;0.10;;;9.70;1.00;226.50;231333.00;;;;5065554;28;20235;-72
2022/03/20 10:43:51;;;;;;;0.10;0.10;;;9.80;1.00;226.50;231333.00;;;;5069671;28;20773;-72
2022/03/20 10:46:26;;;;;;;0.10;0.10;;;9.90;1.00;226.50;231333.00;;;;5071826;28;20215;-72
2022/03/20 10:48:56;;;;;;;0.10;0.10;;;9.90;1.00;226.50;231333.00;;;;5074577;28;20201;-72
2022/03/20 10:51:38;;;;;;;0.10;0.10;;;10.00;1.00;226.50;231333.00;;;;5069319;28;20205;-72
2022/03/20 10:54:10;;;;;;;0.10;0.10;;;10.00;1.00;226.50;231333.00;;;;5074602;28;20771;-72
2022/03/20 10:56:53;;;;;;;0.10;0.10;;;10.10;1.00;226.50;231333.00;;;;5074173;28;20224;-72
2022/03/20 10:59:22;;;;;;;0.10;0.10;;;10.20;1.00;226.50;231333.00;;;;5074706;28;20193;-72
2022/03/20 11:01:53;;;;;;;0.08;0.08;;;10.40;1.00;226.50;231333.00;;;;5074220;28;20221;-72
2022/03/20 11:04:23;;;;;;;0.10;0.10;;;10.50;1.00;226.50;231333.00;;;;5074124;28;20185;-72
2022/03/20 11:06:57;;;;;;;0.10;0.10;;;10.70;1.00;226.50;231333.00;;;;5073984;28;20202;-72
2022/03/20 11:09:25;;;;;;;0.00;0.00;;;10.90;1.00;226.50;231333.00;;;;5071972;28;20247;-72
2022/03/20 11:11:54;;;;;;;0.10;0.10;;;11.40;1.00;226.50;231333.00;;;;5072721;28;20349;-72
2022/03/20 11:14:25;;;;;;;0.10;0.10;;;11.50;1.00;226.50;231333.00;;;;5075261;28;20201;-72
2022/03/20 11:17:01;;;;;;;0.10;0.10;;;11.70;1.00;226.50;231333.00;;;;5074364;28;20201;-71
2022/03/20 11:19:33;;;;;;;0.10;0.10;;;11.90;1.00;226.50;231333.00;;;;5074536;28;20205;-72
2022/03/20 11:22:04;;;;;;;0.00;0.00;;;11.90;1.00;226.50;231333.00;;;;5074212;28;20214;-72
2022/03/20 11:24:34;;;;;;;0.10;0.10;;;12.00;1.00;226.50;231333.00;;;;5072030;28;20205;-72
2022/03/20 11:27:05;;;;;;;0.10;0.10;;;12.30;1.00;226.50;231333.00;;;;5073922;28;20193;-72
2022/03/20 11:29:44;;;;;;;0.00;0.00;;;12.70;1.00;226.50;231333.00;;;;5074206;28;20766;-72
2022/03/20 11:32:15;;;;;;;0.00;0.00;;;13.10;1.00;226.50;231333.00;;;;5067520;28;20225;-72
2022/03/20 11:34:46;;;;;;;0.10;0.10;;;13.20;1.00;226.50;231333.00;;;;5073795;28;20206;-72
2022/03/20 11:37:16;;;;;;;0.00;0.00;;;13.30;1.00;226.50;231333.00;;;;5073621;28;20205;-72